sensor_id;sensor_type;location;lat;lon;timestamp;temperature;humidity
9977;DHT22;5029;47.378;11.776;2023-04-06T00:00:36;-0.60;99.90
9977;DHT22;5029;47.378;11.776;2023-04-06T00:05:39;-0.80;99.90
9977;DHT22;5029;47.378;11.776;2023-04-06T00:10:44;-0.80;1.00
9977;DHT22;5029;47.378;11.776;2023-04-06T00:15:47;-0.70;99.90
9977;DHT22;5029;47.378;11.776;2023-04-06T00:20:50;-1.00;99.90
9977;DHT22;5029;47.378;11.776;2023-04-06T00:25:55;-1.00;99.90
9977;DHT22;5029;47.378;11.776;2023-04-06T00:30:59;-0.90;99.90
9977;DHT22;5029;47.378;11.776;2023-04-06T00:36:02;-1.10;99.90
9977;DHT22;5029;47.378;11.776;2023-04-06T00:41:07;-1.20;99.90
9977;DHT22;5029;47.378;11.776;2023-04-06T00:46:10;-1.20;99.90
9977;DHT22;5029;47.378;11.776;2023-04-06T00:51:14;-0.80;99.90
9977;DHT22;5029;47.378;11.776;2023-04-06T00:56:19;-1.10;99.90
9977;DHT22;5029;47.378;11.776;2023-04-06T01:01:23;-1.20;99.90
9977;DHT22;5029;47.378;11.776;2023-04-06T01:06:27;-0.80;99.90
9977;DHT22;5029;47.378;11.776;2023-04-06T01:11:31;-1.00;99.90
9977;DHT22;5029;47.378;11.776;2023-04-06T01:16:36;-0.70;99.90
9977;DHT22;5029;47.378;11.776;2023-04-06T01:21:40;-0.50;99.90
9977;DHT22;5029;47.378;11.776;2023-04-06T01:26:45;-0.40;99.90
9977;DHT22;5029;47.378;11.776;2023-04-06T01:31:48;-0.70;99.90
9977;DHT22;5029;47.378;11.776;2023-04-06T01:36:52;-1.20;99.90
9977;DHT22;5029;47.378;11.776;2023-04-06T01:41:57;-1.30;99.90
9977;DHT22;5029;47.378;11.776;2023-04-06T01:47:00;-1.00;99.90
9977;DHT22;5029;47.378;11.776;2023-04-06T01:52:04;-0.70;99.90
9977;DHT22;5029;47.378;11.776;2023-04-06T01:57:10;-0.70;99.90
9977;DHT22;5029;47.378;11.776;2023-04-06T02:02:13;-1.20;99.90
9977;DHT22;5029;47.378;11.776;2023-04-06T02:07:17;-1.30;99.90
9977;DHT22;5029;47.378;11.776;2023-04-06T02:12:22;-1.20;99.90
9977;DHT22;5029;47.378;11.776;2023-04-06T02:17:25;-0.80;99.90
9977;DHT22;5029;47.378;11.776;2023-04-06T02:22:29;-0.60;99.90
9977;DHT22;5029;47.378;11.776;2023-04-06T02:27:33;-0.60;99.90
9977;DHT22;5029;47.378;11.776;2023-04-06T02:32:37;-1.40;99.90
9977;DHT22;5029;47.378;11.776;2023-04-06T02:37:40;-1.10;99.90
9977;DHT22;5029;47.378;11.776;2023-04-06T02:42:45;-0.70;99.90
9977;DHT22;5029;47.378;11.776;2023-04-06T02:47:48;-0.70;99.90
9977;DHT22;5029;47.378;11.776;2023-04-06T02:52:53;-0.60;99.90
9977;DHT22;5029;47.378;11.776;2023-04-06T02:57:57;-1.00;99.90
9977;DHT22;5029;47.378;11.776;2023-04-06T03:03:03;-1.10;99.90
9977;DHT22;5029;47.378;11.776;2023-04-06T03:08:07;-1.10;99.90
9977;DHT22;5029;47.378;11.776;2023-04-06T03:13:12;-0.90;99.90
9977;DHT22;5029;47.378;11.776;2023-04-06T03:18:15;-1.30;99.90
9977;DHT22;5029;47.378;11.776;2023-04-06T03:23:18;-0.80;99.90
9977;DHT22;5029;47.378;11.776;2023-04-06T03:28:24;-1.20;99.90
9977;DHT22;5029;47.378;11.776;2023-04-06T03:33:27;-1.10;99.90
9977;DHT22;5029;47.378;11.776;2023-04-06T03:38:30;-1.00;99.90
9977;DHT22;5029;47.378;11.776;2023-04-06T03:43:35;-1.10;99.90
9977;DHT22;5029;47.378;11.776;2023-04-06T03:48:38;-1.00;99.90
9977;DHT22;5029;47.378;11.776;2023-04-06T03:53:42;-0.80;99.90
9977;DHT22;5029;47.378;11.776;2023-04-06T03:58:46;-1.10;99.90
9977;DHT22;5029;47.378;11.776;2023-04-06T04:03:53;-0.80;99.90
9977;DHT22;5029;47.378;11.776;2023-04-06T04:08:57;-0.80;99.90
9977;DHT22;5029;47.378;11.776;2023-04-06T04:14:01;-1.10;99.90
9977;DHT22;5029;47.378;11.776;2023-04-06T04:19:05;-1.60;99.90
9977;DHT22;5029;47.378;11.776;2023-04-06T04:24:09;-1.70;99.90
9977;DHT22;5029;47.378;11.776;2023-04-06T04:29:13;-1.40;99.90
9977;DHT22;5029;47.378;11.776;2023-04-06T04:34:17;-1.30;99.90
9977;DHT22;5029;47.378;11.776;2023-04-06T04:39:22;-1.50;99.90
9977;DHT22;5029;47.378;11.776;2023-04-06T04:44:26;-1.30;99.90
9977;DHT22;5029;47.378;11.776;2023-04-06T04:49:31;-1.40;99.90
9977;DHT22;5029;47.378;11.776;2023-04-06T04:54:34;-1.40;99.90
9977;DHT22;5029;47.378;11.776;2023-04-06T04:59:39;-0.80;99.90
9977;DHT22;5029;47.378;11.776;2023-04-06T05:04:42;-1.20;99.90
9977;DHT22;5029;47.378;11.776;2023-04-06T05:09:46;-1.30;99.90
9977;DHT22;5029;47.378;11.776;2023-04-06T05:14:50;-1.10;99.90
9977;DHT22;5029;47.378;11.776;2023-04-06T05:19:54;-1.20;99.90
9977;DHT22;5029;47.378;11.776;2023-04-06T05:24:57;-1.60;99.90
9977;DHT22;5029;47.378;11.776;2023-04-06T05:30:02;-1.30;99.90
9977;DHT22;5029;47.378;11.776;2023-04-06T05:35:06;-1.40;99.90
9977;DHT22;5029;47.378;11.776;2023-04-06T05:40:09;-1.20;99.90
9977;DHT22;5029;47.378;11.776;2023-04-06T05:45:14;-1.40;99.90
9977;DHT22;5029;47.378;11.776;2023-04-06T05:50:18;-1.10;99.90
9977;DHT22;5029;47.378;11.776;2023-04-06T05:55:22;-0.70;99.90
9977;DHT22;5029;47.378;11.776;2023-04-06T06:00:26;-0.90;99.90
9977;DHT22;5029;47.378;11.776;2023-04-06T06:05:30;-1.00;99.90
9977;DHT22;5029;47.378;11.776;2023-04-06T06:10:33;-0.10;99.90
9977;DHT22;5029;47.378;11.776;2023-04-06T06:15:38;0.30;99.90
9977;DHT22;5029;47.378;11.776;2023-04-06T06:20:41;1.00;99.90
9977;DHT22;5029;47.378;11.776;2023-04-06T06:25:45;0.50;99.90
9977;DHT22;5029;47.378;11.776;2023-04-06T06:30:49;1.10;99.90
9977;DHT22;5029;47.378;11.776;2023-04-06T06:35:52;0.80;99.90
9977;DHT22;5029;47.378;11.776;2023-04-06T06:40:56;1.10;99.90
9977;DHT22;5029;47.378;11.776;2023-04-06T06:46:01;1.50;99.90
9977;DHT22;5029;47.378;11.776;2023-04-06T06:51:04;1.40;99.90
9977;DHT22;5029;47.378;11.776;2023-04-06T06:56:07;0.90;99.90
9977;DHT22;5029;47.378;11.776;2023-04-06T07:01:12;1.10;99.90
9977;DHT22;5029;47.378;11.776;2023-04-06T07:06:15;1.00;99.90
9977;DHT22;5029;47.378;11.776;2023-04-06T07:11:19;1.00;99.90
9977;DHT22;5029;47.378;11.776;2023-04-06T07:16:24;1.40;99.90
9977;DHT22;5029;47.378;11.776;2023-04-06T07:21:27;1.60;99.90
9977;DHT22;5029;47.378;11.776;2023-04-06T07:26:30;2.00;99.90
9977;DHT22;5029;47.378;11.776;2023-04-06T07:31:35;1.70;99.90
9977;DHT22;5029;47.378;11.776;2023-04-06T07:36:38;1.80;99.90
9977;DHT22;5029;47.378;11.776;2023-04-06T07:41:42;1.70;99.90
9977;DHT22;5029;47.378;11.776;2023-04-06T07:46:46;2.00;99.90
9977;DHT22;5029;47.378;11.776;2023-04-06T07:51:50;2.80;99.90
9977;DHT22;5029;47.378;11.776;2023-04-06T07:56:53;3.00;99.90
9977;DHT22;5029;47.378;11.776;2023-04-06T08:01:57;3.30;99.90
9977;DHT22;5029;47.378;11.776;2023-04-06T08:07:01;3.10;99.90
9977;DHT22;5029;47.378;11.776;2023-04-06T08:12:04;3.00;99.90
9977;DHT22;5029;47.378;11.776;2023-04-06T08:17:09;3.00;99.90
9977;DHT22;5029;47.378;11.776;2023-04-06T08:22:12;3.40;99.90
9977;DHT22;5029;47.378;11.776;2023-04-06T08:27:16;3.30;99.90
9977;DHT22;5029;47.378;11.776;2023-04-06T08:32:21;3.60;99.90
9977;DHT22;5029;47.378;11.776;2023-04-06T08:37:25;3.40;99.90
9977;DHT22;5029;47.378;11.776;2023-04-06T08:42:32;3.80;99.90
9977;DHT22;5029;47.378;11.776;2023-04-06T08:47:37;4.20;99.90
9977;DHT22;5029;47.378;11.776;2023-04-06T08:52:43;4.30;99.90
9977;DHT22;5029;47.378;11.776;2023-04-06T08:57:47;3.90;99.90
9977;DHT22;5029;47.378;11.776;2023-04-06T09:02:54;4.30;99.90
9977;DHT22;5029;47.378;11.776;2023-04-06T09:07:59;4.70;99.90
9977;DHT22;5029;47.378;11.776;2023-04-06T09:13:05;5.20;99.90
9977;DHT22;5029;47.378;11.776;2023-04-06T09:18:10;4.70;99.90
9977;DHT22;5029;47.378;11.776;2023-04-06T09:23:17;5.10;99.90
9977;DHT22;5029;47.378;11.776;2023-04-06T09:28:21;5.10;99.90
9977;DHT22;5029;47.378;11.776;2023-04-06T09:33:26;5.60;99.90
9977;DHT22;5029;47.378;11.776;2023-04-06T09:38:29;5.30;99.90
9977;DHT22;5029;47.378;11.776;2023-04-06T09:43:32;5.70;99.90
9977;DHT22;5029;47.378;11.776;2023-04-06T09:48:38;6.00;99.90
9977;DHT22;5029;47.378;11.776;2023-04-06T09:53:44;6.70;99.90
9977;DHT22;5029;47.378;11.776;2023-04-06T09:58:56;6.40;99.90
9977;DHT22;5029;47.378;11.776;2023-04-06T10:04:11;6.20;99.90
9977;DHT22;5029;47.378;11.776;2023-04-06T10:09:16;6.10;99.90
9977;DHT22;5029;47.378;11.776;2023-04-06T10:14:19;6.40;99.90
9977;DHT22;5029;47.378;11.776;2023-04-06T10:19:28;7.10;99.90
9977;DHT22;5029;47.378;11.776;2023-04-06T10:24:35;6.70;99.90
9977;DHT22;5029;47.378;11.776;2023-04-06T10:29:43;7.00;99.90
9977;DHT22;5029;47.378;11.776;2023-04-06T10:34:49;7.20;99.90
9977;DHT22;5029;47.378;11.776;2023-04-06T10:39:53;7.20;99.90
9977;DHT22;5029;47.378;11.776;2023-04-06T10:45:00;7.10;99.90
9977;DHT22;5029;47.378;11.776;2023-04-06T10:50:05;7.30;99.90
9977;DHT22;5029;47.378;11.776;2023-04-06T10:55:09;7.20;99.90
9977;DHT22;5029;47.378;11.776;2023-04-06T11:00:14;7.70;99.90
9977;DHT22;5029;47.378;11.776;2023-04-06T11:05:19;7.60;99.90
9977;DHT22;5029;47.378;11.776;2023-04-06T11:10:22;7.90;99.90
9977;DHT22;5029;47.378;11.776;2023-04-06T11:15:26;8.60;99.90
9977;DHT22;5029;47.378;11.776;2023-04-06T11:20:31;8.90;99.90
9977;DHT22;5029;47.378;11.776;2023-04-06T11:25:34;7.90;99.90
9977;DHT22;5029;47.378;11.776;2023-04-06T11:30:37;7.70;99.90
9977;DHT22;5029;47.378;11.776;2023-04-06T11:35:43;7.90;99.90
9977;DHT22;5029;47.378;11.776;2023-04-06T11:40:46;8.60;99.90
9977;DHT22;5029;47.378;11.776;2023-04-06T11:46:00;7.70;99.90
9977;DHT22;5029;47.378;11.776;2023-04-06T11:51:05;8.50;99.90
9977;DHT22;5029;47.378;11.776;2023-04-06T11:56:09;8.60;99.90
9977;DHT22;5029;47.378;11.776;2023-04-06T12:01:12;8.70;99.90
9977;DHT22;5029;47.378;11.776;2023-04-06T12:06:17;8.80;99.90
9977;DHT22;5029;47.378;11.776;2023-04-06T12:11:21;7.70;99.90
9977;DHT22;5029;47.378;11.776;2023-04-06T12:16:25;7.80;99.90
9977;DHT22;5029;47.378;11.776;2023-04-06T12:21:30;7.80;99.90
9977;DHT22;5029;47.378;11.776;2023-04-06T12:26:34;8.70;99.90
9977;DHT22;5029;47.378;11.776;2023-04-06T12:31:37;9.10;99.90
9977;DHT22;5029;47.378;11.776;2023-04-06T12:36:44;8.50;99.90
9977;DHT22;5029;47.378;11.776;2023-04-06T12:41:47;9.20;99.90
9977;DHT22;5029;47.378;11.776;2023-04-06T12:46:50;9.70;99.90
9977;DHT22;5029;47.378;11.776;2023-04-06T12:51:55;9.40;99.90
9977;DHT22;5029;47.378;11.776;2023-04-06T12:56:59;9.20;99.90
9977;DHT22;5029;47.378;11.776;2023-04-06T13:02:03;9.50;99.90
9977;DHT22;5029;47.378;11.776;2023-04-06T13:07:08;9.20;99.90
9977;DHT22;5029;47.378;11.776;2023-04-06T13:12:12;9.20;99.90
9977;DHT22;5029;47.378;11.776;2023-04-06T13:17:15;8.70;99.90
9977;DHT22;5029;47.378;11.776;2023-04-06T13:22:20;10.00;99.90
9977;DHT22;5029;47.378;11.776;2023-04-06T13:27:24;10.10;99.90
9977;DHT22;5029;47.378;11.776;2023-04-06T13:32:27;10.30;99.90
9977;DHT22;5029;47.378;11.776;2023-04-06T13:37:32;10.30;99.90
9977;DHT22;5029;47.378;11.776;2023-04-06T13:42:35;9.80;99.90
9977;DHT22;5029;47.378;11.776;2023-04-06T13:47:39;10.40;99.90
9977;DHT22;5029;47.378;11.776;2023-04-06T13:52:44;11.70;99.90
9977;DHT22;5029;47.378;11.776;2023-04-06T13:57:47;10.40;99.90
9977;DHT22;5029;47.378;11.776;2023-04-06T14:02:51;10.00;99.90
9977;DHT22;5029;47.378;11.776;2023-04-06T14:07:57;9.40;99.90
9977;DHT22;5029;47.378;11.776;2023-04-06T14:13:01;9.50;99.90
9977;DHT22;5029;47.378;11.776;2023-04-06T14:18:04;8.90;99.90
9977;DHT22;5029;47.378;11.776;2023-04-06T14:23:09;9.50;99.90
9977;DHT22;5029;47.378;11.776;2023-04-06T14:28:13;9.10;99.90
9977;DHT22;5029;47.378;11.776;2023-04-06T14:33:16;9.40;99.90
9977;DHT22;5029;47.378;11.776;2023-04-06T14:38:21;9.70;99.90
9977;DHT22;5029;47.378;11.776;2023-04-06T14:43:24;10.10;99.90
9977;DHT22;5029;47.378;11.776;2023-04-06T14:48:28;10.00;99.90
9977;DHT22;5029;47.378;11.776;2023-04-06T14:53:33;9.50;99.90
9977;DHT22;5029;47.378;11.776;2023-04-06T14:58:36;9.70;99.90
9977;DHT22;5029;47.378;11.776;2023-04-06T15:03:39;9.40;99.90
9977;DHT22;5029;47.378;11.776;2023-04-06T15:08:45;9.70;99.90
9977;DHT22;5029;47.378;11.776;2023-04-06T15:13:48;11.00;99.90
9977;DHT22;5029;47.378;11.776;2023-04-06T15:18:52;10.10;99.90
9977;DHT22;5029;47.378;11.776;2023-04-06T15:23:57;10.20;99.90
9977;DHT22;5029;47.378;11.776;2023-04-06T15:29:01;10.30;99.90
9977;DHT22;5029;47.378;11.776;2023-04-06T15:34:04;10.00;99.90
9977;DHT22;5029;47.378;11.776;2023-04-06T15:39:11;10.00;99.90
9977;DHT22;5029;47.378;11.776;2023-04-06T15:44:15;9.10;99.90
9977;DHT22;5029;47.378;11.776;2023-04-06T15:49:20;9.40;99.90
9977;DHT22;5029;47.378;11.776;2023-04-06T15:54:25;9.60;99.90
9977;DHT22;5029;47.378;11.776;2023-04-06T15:59:28;9.40;99.90
9977;DHT22;5029;47.378;11.776;2023-04-06T16:04:31;10.10;99.90
9977;DHT22;5029;47.378;11.776;2023-04-06T16:09:36;9.90;99.90
9977;DHT22;5029;47.378;11.776;2023-04-06T16:14:40;10.00;99.90
9977;DHT22;5029;47.378;11.776;2023-04-06T16:19:43;9.80;99.90
9977;DHT22;5029;47.378;11.776;2023-04-06T16:24:48;9.70;99.90
9977;DHT22;5029;47.378;11.776;2023-04-06T16:29:51;8.90;99.90
9977;DHT22;5029;47.378;11.776;2023-04-06T16:34:55;9.10;99.90
9977;DHT22;5029;47.378;11.776;2023-04-06T16:39:59;8.80;99.90
9977;DHT22;5029;47.378;11.776;2023-04-06T16:45:03;8.90;99.90
9977;DHT22;5029;47.378;11.776;2023-04-06T16:50:07;8.80;99.90
9977;DHT22;5029;47.378;11.776;2023-04-06T16:55:12;8.60;99.90
9977;DHT22;5029;47.378;11.776;2023-04-06T17:00:16;8.30;99.90
9977;DHT22;5029;47.378;11.776;2023-04-06T17:05:20;8.20;99.90
9977;DHT22;5029;47.378;11.776;2023-04-06T17:10:28;7.70;99.90
9977;DHT22;5029;47.378;11.776;2023-04-06T17:15:41;7.60;99.90
9977;DHT22;5029;47.378;11.776;2023-04-06T17:20:45;7.50;99.90
9977;DHT22;5029;47.378;11.776;2023-04-06T17:25:51;7.30;99.90
9977;DHT22;5029;47.378;11.776;2023-04-06T17:30:58;6.80;99.90
9977;DHT22;5029;47.378;11.776;2023-04-06T17:36:02;6.40;99.90
9977;DHT22;5029;47.378;11.776;2023-04-06T17:41:07;6.50;99.90
9977;DHT22;5029;47.378;11.776;2023-04-06T17:46:10;6.00;99.90
9977;DHT22;5029;47.378;11.776;2023-04-06T17:51:14;5.90;99.90
9977;DHT22;5029;47.378;11.776;2023-04-06T17:56:21;5.80;99.90
9977;DHT22;5029;47.378;11.776;2023-04-06T18:01:25;5.40;99.90
9977;DHT22;5029;47.378;11.776;2023-04-06T18:06:28;5.30;99.90
9977;DHT22;5029;47.378;11.776;2023-04-06T18:11:33;5.30;99.90
9977;DHT22;5029;47.378;11.776;2023-04-06T18:16:37;5.20;99.90
9977;DHT22;5029;47.378;11.776;2023-04-06T18:21:42;5.60;99.90
9977;DHT22;5029;47.378;11.776;2023-04-06T18:26:46;5.30;99.90
9977;DHT22;5029;47.378;11.776;2023-04-06T18:31:50;5.30;99.90
9977;DHT22;5029;47.378;11.776;2023-04-06T18:36:56;5.50;99.90
9977;DHT22;5029;47.378;11.776;2023-04-06T18:42:02;5.30;99.90
9977;DHT22;5029;47.378;11.776;2023-04-06T18:47:05;5.40;99.90
9977;DHT22;5029;47.378;11.776;2023-04-06T18:52:10;5.30;99.90
9977;DHT22;5029;47.378;11.776;2023-04-06T18:57:15;5.40;99.90
9977;DHT22;5029;47.378;11.776;2023-04-06T19:02:18;5.40;99.90
9977;DHT22;5029;47.378;11.776;2023-04-06T19:07:22;4.90;99.90
9977;DHT22;5029;47.378;11.776;2023-04-06T19:12:29;5.10;99.90
9977;DHT22;5029;47.378;11.776;2023-04-06T19:17:33;5.10;99.90
9977;DHT22;5029;47.378;11.776;2023-04-06T19:22:37;5.30;99.90
9977;DHT22;5029;47.378;11.776;2023-04-06T19:27:42;5.10;99.90
9977;DHT22;5029;47.378;11.776;2023-04-06T19:32:45;5.00;99.90
9977;DHT22;5029;47.378;11.776;2023-04-06T19:37:49;5.00;99.90
9977;DHT22;5029;47.378;11.776;2023-04-06T19:42:55;5.20;99.90
9977;DHT22;5029;47.378;11.776;2023-04-06T19:47:58;5.00;99.90
9977;DHT22;5029;47.378;11.776;2023-04-06T19:53:02;4.90;99.90
9977;DHT22;5029;47.378;11.776;2023-04-06T19:58:06;4.60;99.90
9977;DHT22;5029;47.378;11.776;2023-04-06T20:03:10;4.40;99.90
9977;DHT22;5029;47.378;11.776;2023-04-06T20:08:14;4.30;99.90
9977;DHT22;5029;47.378;11.776;2023-04-06T20:13:19;4.00;99.90
9977;DHT22;5029;47.378;11.776;2023-04-06T20:18:22;3.90;99.90
9977;DHT22;5029;47.378;11.776;2023-04-06T20:23:26;4.00;99.90
9977;DHT22;5029;47.378;11.776;2023-04-06T20:28:31;3.70;99.90
9977;DHT22;5029;47.378;11.776;2023-04-06T20:33:34;3.70;99.90
9977;DHT22;5029;47.378;11.776;2023-04-06T20:38:38;3.80;99.90
9977;DHT22;5029;47.378;11.776;2023-04-06T20:43:42;3.90;99.90
9977;DHT22;5029;47.378;11.776;2023-04-06T20:48:46;3.60;99.90
9977;DHT22;5029;47.378;11.776;2023-04-06T20:53:49;3.60;99.90
9977;DHT22;5029;47.378;11.776;2023-04-06T20:58:55;3.40;99.90
9977;DHT22;5029;47.378;11.776;2023-04-06T21:03:59;3.40;99.90
9977;DHT22;5029;47.378;11.776;2023-04-06T21:09:05;3.40;99.90
9977;DHT22;5029;47.378;11.776;2023-04-06T21:14:10;3.20;99.90
9977;DHT22;5029;47.378;11.776;2023-04-06T21:19:13;3.30;99.90
9977;DHT22;5029;47.378;11.776;2023-04-06T21:24:16;3.30;99.90
9977;DHT22;5029;47.378;11.776;2023-04-06T21:29:21;3.20;99.90
9977;DHT22;5029;47.378;11.776;2023-04-06T21:34:25;3.30;99.90
9977;DHT22;5029;47.378;11.776;2023-04-06T21:39:28;3.30;99.90
9977;DHT22;5029;47.378;11.776;2023-04-06T21:44:34;3.20;99.90
9977;DHT22;5029;47.378;11.776;2023-04-06T21:49:37;2.80;99.90
9977;DHT22;5029;47.378;11.776;2023-04-06T21:54:40;2.70;99.90
9977;DHT22;5029;47.378;11.776;2023-04-06T21:59:45;2.70;99.90
9977;DHT22;5029;47.378;11.776;2023-04-06T22:04:48;2.90;99.90
9977;DHT22;5029;47.378;11.776;2023-04-06T22:09:52;2.70;99.90
9977;DHT22;5029;47.378;11.776;2023-04-06T22:14:57;2.60;99.90
9977;DHT22;5029;47.378;11.776;2023-04-06T22:20:00;2.70;99.90
9977;DHT22;5029;47.378;11.776;2023-04-06T22:25:04;2.80;99.90
9977;DHT22;5029;47.378;11.776;2023-04-06T22:30:10;2.60;99.90
9977;DHT22;5029;47.378;11.776;2023-04-06T22:35:13;2.30;99.90
9977;DHT22;5029;47.378;11.776;2023-04-06T22:40:17;2.20;99.90
9977;DHT22;5029;47.378;11.776;2023-04-06T22:45:21;2.50;99.90
9977;DHT22;5029;47.378;11.776;2023-04-06T22:50:25;2.30;99.90
9977;DHT22;5029;47.378;11.776;2023-04-06T22:55:28;2.10;99.90
9977;DHT22;5029;47.378;11.776;2023-04-06T23:00:33;2.30;99.90
9977;DHT22;5029;47.378;11.776;2023-04-06T23:05:36;2.70;99.90
9977;DHT22;5029;47.378;11.776;2023-04-06T23:10:40;2.40;99.90
9977;DHT22;5029;47.378;11.776;2023-04-06T23:15:45;2.20;99.90
9977;DHT22;5029;47.378;11.776;2023-04-06T23:20:48;2.40;99.90
9977;DHT22;5029;47.378;11.776;2023-04-06T23:25:51;2.30;99.90
9977;DHT22;5029;47.378;11.776;2023-04-06T23:30:56;2.20;99.90
9977;DHT22;5029;47.378;11.776;2023-04-06T23:35:59;2.20;99.90
9977;DHT22;5029;47.378;11.776;2023-04-06T23:41:03;2.10;99.90
9977;DHT22;5029;47.378;11.776;2023-04-06T23:46:08;2.30;99.90
9977;DHT22;5029;47.378;11.776;2023-04-06T23:51:11;2.20;99.90
9977;DHT22;5029;47.378;11.776;2023-04-06T23:56:14;2.40;99.90
